sensor_id;sensor_type;location;lat;lon;timestamp;pressure;altitude;pressure_sealevel;temperature;humidity
6387;BME280;3226;42.162;24.756;2024-01-11T00:00:55;100905.38;;;-3.60;100.00
6387;BME280;3226;42.162;24.756;2024-01-11T00:03:23;100906.22;;;-3.57;100.00
6387;BME280;3226;42.162;24.756;2024-01-11T00:05:51;100899.41;;;-3.58;100.00
6387;BME280;3226;42.162;24.756;2024-01-11T00:08:19;100891.72;;;-3.59;100.00
6387;BME280;3226;42.162;24.756;2024-01-11T00:10:48;100891.72;;;-3.58;100.00
6387;BME280;3226;42.162;24.756;2024-01-11T00:13:17;100886.59;;;-3.58;100.00
6387;BME280;3226;42.162;24.756;2024-01-11T00:15:45;100897.66;;;-3.54;100.00
6387;BME280;3226;42.162;24.756;2024-01-11T00:18:13;100883.19;;;-3.60;100.00
6387;BME280;3226;42.162;24.756;2024-01-11T00:20:41;100877.25;;;-3.67;100.00
6387;BME280;3226;42.162;24.756;2024-01-11T00:23:09;100885.72;;;-3.55;100.00
6387;BME280;3226;42.162;24.756;2024-01-11T00:25:37;100781.94;;;-4.36;100.00
6387;BME280;3226;42.162;24.756;2024-01-11T00:28:07;100880.69;;;-3.75;100.00
6387;BME280;3226;42.162;24.756;2024-01-11T00:30:35;100872.13;;;-3.62;100.00
6387;BME280;3226;42.162;24.756;2024-01-11T00:33:03;100869.56;;;-3.65;100.00
6387;BME280;3226;42.162;24.756;2024-01-11T00:35:31;100877.25;;;-3.67;100.00
6387;BME280;3226;42.162;24.756;2024-01-11T00:38:00;100867.88;;;-3.71;100.00
6387;BME280;3226;42.162;24.756;2024-01-11T00:40:28;100795.50;;;-4.18;100.00
6387;BME280;3226;42.162;24.756;2024-01-11T00:42:56;100867.03;;;-3.74;100.00
6387;BME280;3226;42.162;24.756;2024-01-11T00:45:25;100856.00;;;-3.84;100.00
6387;BME280;3226;42.162;24.756;2024-01-11T00:47:53;100832.13;;;-3.97;100.00
6387;BME280;3226;42.162;24.756;2024-01-11T00:50:21;100820.19;;;-4.00;100.00
6387;BME280;3226;42.162;24.756;2024-01-11T00:52:49;100837.22;;;-3.88;100.00
6387;BME280;3226;42.162;24.756;2024-01-11T00:55:17;100831.22;;;-3.84;100.00
6387;BME280;3226;42.162;24.756;2024-01-11T00:57:45;100832.94;;;-3.86;100.00
6387;BME280;3226;42.162;24.756;2024-01-11T01:00:13;100832.06;;;-3.82;100.00
6387;BME280;3226;42.162;24.756;2024-01-11T01:02:43;100823.53;;;-3.81;100.00
6387;BME280;3226;42.162;24.756;2024-01-11T01:05:11;100825.22;;;-3.80;100.00
6387;BME280;3226;42.162;24.756;2024-01-11T01:07:40;100821.84;;;-3.88;100.00
6387;BME280;3226;42.162;24.756;2024-01-11T01:10:08;100741.91;;;-4.47;100.00
6387;BME280;3226;42.162;24.756;2024-01-11T01:12:36;100826.16;;;-3.96;100.00
6387;BME280;3226;42.162;24.756;2024-01-11T01:15:05;100800.59;;;-4.02;100.00
6387;BME280;3226;42.162;24.756;2024-01-11T01:17:33;100809.03;;;-3.85;100.00
6387;BME280;3226;42.162;24.756;2024-01-11T01:20:03;100831.25;;;-3.90;100.00
6387;BME280;3226;42.162;24.756;2024-01-11T01:22:31;100812.47;;;-3.89;100.00
6387;BME280;3226;42.162;24.756;2024-01-11T01:24:59;100812.53;;;-4.04;100.00
6387;BME280;3226;42.162;24.756;2024-01-11T01:27:28;100807.44;;;-4.11;100.00
6387;BME280;3226;42.162;24.756;2024-01-11T01:29:56;100804.88;;;-4.11;100.00
6387;BME280;3226;42.162;24.756;2024-01-11T01:32:24;100800.59;;;-4.07;100.00
6387;BME280;3226;42.162;24.756;2024-01-11T01:34:52;100747.84;;;-4.44;100.00
6387;BME280;3226;42.162;24.756;2024-01-11T01:37:21;100797.25;;;-4.22;100.00
6387;BME280;3226;42.162;24.756;2024-01-11T01:39:49;100790.41;;;-4.24;100.00
6387;BME280;3226;42.162;24.756;2024-01-11T01:42:17;100792.13;;;-4.20;100.00
6387;BME280;3226;42.162;24.756;2024-01-11T01:44:45;100799.78;;;-4.15;100.00
6387;BME280;3226;42.162;24.756;2024-01-11T01:47:13;100786.13;;;-4.19;100.00
6387;BME280;3226;42.162;24.756;2024-01-11T01:49:42;100690.84;;;-4.77;100.00
6387;BME280;3226;42.162;24.756;2024-01-11T01:52:13;100788.72;;;-4.22;100.00
6387;BME280;3226;42.162;24.756;2024-01-11T01:54:43;100785.31;;;-4.24;100.00
6387;BME280;3226;42.162;24.756;2024-01-11T01:57:11;100783.63;;;-4.31;100.00
6387;BME280;3226;42.162;24.756;2024-01-11T01:59:41;100672.16;;;-5.05;100.00
6387;BME280;3226;42.162;24.756;2024-01-11T02:02:10;100666.22;;;-5.17;100.00
6387;BME280;3226;42.162;24.756;2024-01-11T02:04:38;100770.00;;;-4.43;100.00
6387;BME280;3226;42.162;24.756;2024-01-11T02:07:06;100769.16;;;-4.40;100.00
6387;BME280;3226;42.162;24.756;2024-01-11T02:09:35;100531.03;;;-6.13;100.00
6387;BME280;3226;42.162;24.756;2024-01-11T02:12:06;100707.00;;;-4.62;100.00
6387;BME280;3226;42.162;24.756;2024-01-11T02:14:37;100759.75;;;-4.38;100.00
6387;BME280;3226;42.162;24.756;2024-01-11T02:17:05;100760.59;;;-4.36;100.00
6387;BME280;3226;42.162;24.756;2024-01-11T02:19:34;100761.50;;;-4.39;100.00
6387;BME280;3226;42.162;24.756;2024-01-11T02:22:08;100551.38;;;-5.68;100.00
6387;BME280;3226;42.162;24.756;2024-01-11T02:24:41;100756.38;;;-4.40;100.00
6387;BME280;3226;42.162;24.756;2024-01-11T02:27:09;100450.28;;;-6.28;100.00
6387;BME280;3226;42.162;24.756;2024-01-11T02:29:37;100667.84;;;-4.83;100.00
6387;BME280;3226;42.162;24.756;2024-01-11T02:32:05;100749.56;;;-4.52;100.00
6387;BME280;3226;42.162;24.756;2024-01-11T02:34:35;100755.53;;;-4.48;100.00
6387;BME280;3226;42.162;24.756;2024-01-11T02:37:04;100746.13;;;-4.45;100.00
6387;BME280;3226;42.162;24.756;2024-01-11T02:39:32;100659.41;;;-5.18;100.00
6387;BME280;3226;42.162;24.756;2024-01-11T02:42:02;100678.13;;;-5.06;100.00
6387;BME280;3226;42.162;24.756;2024-01-11T02:44:30;100744.50;;;-4.80;100.00
6387;BME280;3226;42.162;24.756;2024-01-11T02:46:58;100750.47;;;-4.67;100.00
6387;BME280;3226;42.162;24.756;2024-01-11T02:49:26;100586.28;;;-5.79;100.00
6387;BME280;3226;42.162;24.756;2024-01-11T02:51:54;100739.44;;;-4.96;100.00
6387;BME280;3226;42.162;24.756;2024-01-11T02:54:23;100423.03;;;-6.94;100.00
6387;BME280;3226;42.162;24.756;2024-01-11T02:56:51;100747.94;;;-4.75;100.00
6387;BME280;3226;42.162;24.756;2024-01-11T02:59:20;100745.38;;;-4.76;100.00
6387;BME280;3226;42.162;24.756;2024-01-11T03:01:48;100747.91;;;-4.81;100.00
6387;BME280;3226;42.162;24.756;2024-01-11T03:04:16;100742.81;;;-4.87;100.00
6387;BME280;3226;42.162;24.756;2024-01-11T03:06:44;100737.72;;;-4.83;100.00
6387;BME280;3226;42.162;24.756;2024-01-11T03:09:12;100734.31;;;-4.79;100.00
6387;BME280;3226;42.162;24.756;2024-01-11T03:11:40;100735.16;;;-4.80;100.00
6387;BME280;3226;42.162;24.756;2024-01-11T03:14:08;100729.19;;;-4.71;100.00
6387;BME280;3226;42.162;24.756;2024-01-11T03:16:38;100664.50;;;-5.05;100.00
6387;BME280;3226;42.162;24.756;2024-01-11T03:19:06;100735.13;;;-4.58;100.00
6387;BME280;3226;42.162;24.756;2024-01-11T03:21:34;100733.41;;;-4.60;100.00
6387;BME280;3226;42.162;24.756;2024-01-11T03:24:02;100694.25;;;-4.76;100.00
6387;BME280;3226;42.162;24.756;2024-01-11T03:26:31;100630.44;;;-5.15;100.00
6387;BME280;3226;42.162;24.756;2024-01-11T03:28:59;100722.31;;;-4.59;100.00
6387;BME280;3226;42.162;24.756;2024-01-11T03:31:27;100729.97;;;-4.48;100.00
6387;BME280;3226;42.162;24.756;2024-01-11T03:33:56;100723.97;;;-4.46;100.00
6387;BME280;3226;42.162;24.756;2024-01-11T03:36:25;100723.16;;;-4.53;100.00
6387;BME280;3226;42.162;24.756;2024-01-11T03:38:53;100142.94;;;-8.13;100.00
6387;BME280;3226;42.162;24.756;2024-01-11T03:41:21;100700.22;;;-4.70;100.00
6387;BME280;3226;42.162;24.756;2024-01-11T03:43:49;100703.63;;;-4.75;100.00
6387;BME280;3226;42.162;24.756;2024-01-11T03:46:17;100718.06;;;-4.62;100.00
6387;BME280;3226;42.162;24.756;2024-01-11T03:48:47;100711.25;;;-4.54;100.00
6387;BME280;3226;42.162;24.756;2024-01-11T03:51:16;100686.56;;;-4.69;100.00
6387;BME280;3226;42.162;24.756;2024-01-11T03:53:44;100715.50;;;-4.54;100.00
6387;BME280;3226;42.162;24.756;2024-01-11T03:56:12;100440.06;;;-6.20;100.00
6387;BME280;3226;42.162;24.756;2024-01-11T03:58:40;100408.63;;;-6.47;100.00
6387;BME280;3226;42.162;24.756;2024-01-11T04:01:11;100695.09;;;-4.77;100.00
6387;BME280;3226;42.162;24.756;2024-01-11T04:03:41;100694.25;;;-4.87;100.00
6387;BME280;3226;42.162;24.756;2024-01-11T04:06:16;100699.34;;;-4.70;100.00
6387;BME280;3226;42.162;24.756;2024-01-11T04:08:49;100700.19;;;-4.67;100.00
6387;BME280;3226;42.162;24.756;2024-01-11T04:11:18;100693.34;;;-4.61;100.00
6387;BME280;3226;42.162;24.756;2024-01-11T04:13:46;100615.97;;;-5.07;100.00
6387;BME280;3226;42.162;24.756;2024-01-11T04:16:14;100566.63;;;-5.35;100.00
6387;BME280;3226;42.162;24.756;2024-01-11T04:18:42;100680.59;;;-4.65;100.00
6387;BME280;3226;42.162;24.756;2024-01-11T04:21:20;100678.00;;;-4.61;100.00
6387;BME280;3226;42.162;24.756;2024-01-11T04:23:50;100663.56;;;-4.78;100.00
6387;BME280;3226;42.162;24.756;2024-01-11T04:26:18;100616.81;;;-5.10;100.00
6387;BME280;3226;42.162;24.756;2024-01-11T04:28:47;100682.28;;;-4.63;100.00
6387;BME280;3226;42.162;24.756;2024-01-11T04:31:15;100681.41;;;-4.56;100.00
6387;BME280;3226;42.162;24.756;2024-01-11T04:33:44;100686.53;;;-4.56;100.00
6387;BME280;3226;42.162;24.756;2024-01-11T04:36:13;100690.78;;;-4.57;100.00
6387;BME280;3226;42.162;24.756;2024-01-11T04:38:41;100488.44;;;-5.85;100.00
6387;BME280;3226;42.162;24.756;2024-01-11T04:41:11;100688.22;;;-4.63;100.00
6387;BME280;3226;42.162;24.756;2024-01-11T04:43:39;100676.34;;;-4.69;100.00
6387;BME280;3226;42.162;24.756;2024-01-11T04:46:15;100679.75;;;-4.79;100.00
6387;BME280;3226;42.162;24.756;2024-01-11T04:48:44;100681.47;;;-4.78;100.00
6387;BME280;3226;42.162;24.756;2024-01-11T04:51:15;100693.38;;;-4.80;100.00
6387;BME280;3226;42.162;24.756;2024-01-11T04:53:44;100681.47;;;-4.81;100.00
6387;BME280;3226;42.162;24.756;2024-01-11T04:56:15;100682.31;;;-4.79;100.00
6387;BME280;3226;42.162;24.756;2024-01-11T04:58:44;100673.81;;;-4.80;100.00
6387;BME280;3226;42.162;24.756;2024-01-11T05:01:13;100676.41;;;-4.94;100.00
6387;BME280;3226;42.162;24.756;2024-01-11T05:03:41;100650.00;;;-4.91;100.00
6387;BME280;3226;42.162;24.756;2024-01-11T05:06:15;100668.66;;;-4.70;100.00
6387;BME280;3226;42.162;24.756;2024-01-11T05:08:43;100667.00;;;-4.76;100.00
6387;BME280;3226;42.162;24.756;2024-01-11T05:11:17;100667.00;;;-4.76;100.00
6387;BME280;3226;42.162;24.756;2024-01-11T05:13:46;100665.28;;;-4.80;100.00
6387;BME280;3226;42.162;24.756;2024-01-11T05:16:20;100665.31;;;-4.82;100.00
6387;BME280;3226;42.162;24.756;2024-01-11T05:18:50;100637.25;;;-5.05;100.00
6387;BME280;3226;42.162;24.756;2024-01-11T05:21:20;100666.19;;;-4.97;100.00
6387;BME280;3226;42.162;24.756;2024-01-11T05:23:48;100672.13;;;-4.91;100.00
6387;BME280;3226;42.162;24.756;2024-01-11T05:26:19;100664.50;;;-4.93;100.00
6387;BME280;3226;42.162;24.756;2024-01-11T05:28:48;100667.03;;;-4.91;100.00
6387;BME280;3226;42.162;24.756;2024-01-11T05:31:16;100661.09;;;-5.06;100.00
6387;BME280;3226;42.162;24.756;2024-01-11T05:33:45;100660.25;;;-5.08;100.00
6387;BME280;3226;42.162;24.756;2024-01-11T05:36:14;100663.63;;;-4.97;100.00
6387;BME280;3226;42.162;24.756;2024-01-11T05:38:42;100616.00;;;-5.26;100.00
6387;BME280;3226;42.162;24.756;2024-01-11T05:41:10;100520.78;;;-5.82;100.00
6387;BME280;3226;42.162;24.756;2024-01-11T05:43:40;100647.44;;;-4.96;100.00
6387;BME280;3226;42.162;24.756;2024-01-11T05:46:09;100654.25;;;-4.99;100.00
6387;BME280;3226;42.162;24.756;2024-01-11T05:48:37;100641.50;;;-5.05;100.00
6387;BME280;3226;42.162;24.756;2024-01-11T05:51:05;100643.97;;;-4.71;100.00
6387;BME280;3226;42.162;24.756;2024-01-11T05:53:33;100649.09;;;-4.79;100.00
6387;BME280;3226;42.162;24.756;2024-01-11T05:56:07;100644.91;;;-4.94;100.00
6387;BME280;3226;42.162;24.756;2024-01-11T05:58:35;100637.22;;;-4.96;100.00
6387;BME280;3226;42.162;24.756;2024-01-11T06:01:06;100646.63;;;-5.09;100.00
6387;BME280;3226;42.162;24.756;2024-01-11T06:03:34;100625.34;;;-5.12;100.00
6387;BME280;3226;42.162;24.756;2024-01-11T06:06:03;100647.41;;;-4.86;100.00
6387;BME280;3226;42.162;24.756;2024-01-11T06:08:32;100653.41;;;-5.00;100.00
6387;BME280;3226;42.162;24.756;2024-01-11T06:11:00;100646.59;;;-5.01;100.00
6387;BME280;3226;42.162;24.756;2024-01-11T06:13:28;100635.50;;;-4.86;100.00
6387;BME280;3226;42.162;24.756;2024-01-11T06:15:56;100641.50;;;-5.01;100.00
6387;BME280;3226;42.162;24.756;2024-01-11T06:18:25;100640.59;;;-4.87;100.00
6387;BME280;3226;42.162;24.756;2024-01-11T06:20:53;100525.00;;;-5.64;100.00
6387;BME280;3226;42.162;24.756;2024-01-11T06:23:22;100636.31;;;-4.77;100.00
6387;BME280;3226;42.162;24.756;2024-01-11T06:25:51;100632.03;;;-4.71;100.00
6387;BME280;3226;42.162;24.756;2024-01-11T06:28:19;100589.53;;;-4.97;100.00
6387;BME280;3226;42.162;24.756;2024-01-11T06:30:47;100633.78;;;-4.76;100.00
6387;BME280;3226;42.162;24.756;2024-01-11T06:33:15;100639.66;;;-4.61;100.00
6387;BME280;3226;42.162;24.756;2024-01-11T06:35:44;100558.91;;;-5.06;100.00
6387;BME280;3226;42.162;24.756;2024-01-11T06:38:13;100638.00;;;-4.72;100.00
6387;BME280;3226;42.162;24.756;2024-01-11T06:40:41;100575.03;;;-4.96;100.00
6387;BME280;3226;42.162;24.756;2024-01-11T06:43:10;100553.81;;;-5.09;100.00
6387;BME280;3226;42.162;24.756;2024-01-11T06:45:38;100623.50;;;-4.67;100.00
6387;BME280;3226;42.162;24.756;2024-01-11T06:48:06;100622.66;;;-4.66;100.00
6387;BME280;3226;42.162;24.756;2024-01-11T06:50:34;100623.50;;;-4.67;100.00
6387;BME280;3226;42.162;24.756;2024-01-11T06:53:04;100560.63;;;-5.11;100.00
6387;BME280;3226;42.162;24.756;2024-01-11T06:55:32;100634.56;;;-4.61;100.00
6387;BME280;3226;42.162;24.756;2024-01-11T06:58:00;100631.09;;;-4.50;100.00
6387;BME280;3226;42.162;24.756;2024-01-11T07:00:29;100169.25;;;-7.13;100.00
6387;BME280;3226;42.162;24.756;2024-01-11T07:02:57;100552.63;;;-4.43;100.00
6387;BME280;3226;42.162;24.756;2024-01-11T07:05:25;100629.66;;;-3.57;100.00
6387;BME280;3226;42.162;24.756;2024-01-11T07:07:53;100253.78;;;-5.94;100.00
6387;BME280;3226;42.162;24.756;2024-01-11T07:10:22;100619.50;;;-3.71;100.00
6387;BME280;3226;42.162;24.756;2024-01-11T07:12:50;100524.41;;;-4.27;100.00
6387;BME280;3226;42.162;24.756;2024-01-11T07:15:18;100523.97;;;-3.78;100.00
6387;BME280;3226;42.162;24.756;2024-01-11T07:17:46;100633.47;;;-3.08;100.00
6387;BME280;3226;42.162;24.756;2024-01-11T07:20:15;100624.34;;;-2.55;100.00
6387;BME280;3226;42.162;24.756;2024-01-11T07:22:44;100622.19;;;-2.22;100.00
6387;BME280;3226;42.162;24.756;2024-01-11T07:25:12;100461.09;;;-3.25;100.00
6387;BME280;3226;42.162;24.756;2024-01-11T07:27:42;100616.50;;;-2.46;100.00
6387;BME280;3226;42.162;24.756;2024-01-11T07:30:11;100623.50;;;-1.96;100.00
6387;BME280;3226;42.162;24.756;2024-01-11T07:32:39;100617.44;;;-1.89;100.00
6387;BME280;3226;42.162;24.756;2024-01-11T07:35:08;100612.84;;;-1.71;100.00
6387;BME280;3226;42.162;24.756;2024-01-11T07:37:41;100600.72;;;-1.63;100.00
6387;BME280;3226;42.162;24.756;2024-01-11T07:40:10;100607.22;;;-1.95;100.00
6387;BME280;3226;42.162;24.756;2024-01-11T07:42:38;100597.63;;;-1.82;100.00
6387;BME280;3226;42.162;24.756;2024-01-11T07:45:09;100599.84;;;-1.59;98.89
6387;BME280;3226;42.162;24.756;2024-01-11T07:47:38;100538.59;;;-1.84;96.01
6387;BME280;3226;42.162;24.756;2024-01-11T07:50:07;100481.25;;;-1.84;94.24
6387;BME280;3226;42.162;24.756;2024-01-11T07:52:36;100588.97;;;-1.28;93.92
6387;BME280;3226;42.162;24.756;2024-01-11T07:55:05;100581.44;;;-1.87;93.91
6387;BME280;3226;42.162;24.756;2024-01-11T07:57:34;100587.81;;;-2.12;95.66
6387;BME280;3226;42.162;24.756;2024-01-11T08:00:03;100587.75;;;-2.09;95.75
6387;BME280;3226;42.162;24.756;2024-01-11T08:02:35;100586.28;;;-1.69;96.36
6387;BME280;3226;42.162;24.756;2024-01-11T08:05:05;100579.69;;;-1.84;93.91
6387;BME280;3226;42.162;24.756;2024-01-11T08:07:33;100572.47;;;-1.62;94.41
6387;BME280;3226;42.162;24.756;2024-01-11T08:10:01;100580.28;;;-1.68;94.42
6387;BME280;3226;42.162;24.756;2024-01-11T08:12:30;100583.09;;;-1.83;94.89
6387;BME280;3226;42.162;24.756;2024-01-11T08:14:58;100581.66;;;-2.01;95.23
6387;BME280;3226;42.162;24.756;2024-01-11T08:17:26;100568.00;;;-2.04;97.04
6387;BME280;3226;42.162;24.756;2024-01-11T08:19:56;100574.69;;;-1.43;96.53
6387;BME280;3226;42.162;24.756;2024-01-11T08:22:24;100571.47;;;-1.07;96.23
6387;BME280;3226;42.162;24.756;2024-01-11T08:24:54;100570.84;;;-1.19;94.15
6387;BME280;3226;42.162;24.756;2024-01-11T08:27:22;100564.94;;;-1.72;95.75
6387;BME280;3226;42.162;24.756;2024-01-11T08:29:50;100566.81;;;-1.82;97.03
6387;BME280;3226;42.162;24.756;2024-01-11T08:32:18;100559.88;;;-1.77;98.63
6387;BME280;3226;42.162;24.756;2024-01-11T08:34:59;100558.50;;;-1.48;98.13
6387;BME280;3226;42.162;24.756;2024-01-11T08:37:27;100477.28;;;-2.03;98.22
6387;BME280;3226;42.162;24.756;2024-01-11T08:39:55;100561.50;;;-1.71;97.23
6387;BME280;3226;42.162;24.756;2024-01-11T08:42:23;100555.31;;;-2.11;98.86
6387;BME280;3226;42.162;24.756;2024-01-11T08:44:51;100549.69;;;-1.83;100.00
6387;BME280;3226;42.162;24.756;2024-01-11T08:47:19;100541.22;;;-1.38;100.00
6387;BME280;3226;42.162;24.756;2024-01-11T08:49:47;100543.97;;;-1.48;98.69
6387;BME280;3226;42.162;24.756;2024-01-11T08:52:17;100540.88;;;-1.68;100.00
6387;BME280;3226;42.162;24.756;2024-01-11T08:54:45;100536.13;;;-1.40;100.00
6387;BME280;3226;42.162;24.756;2024-01-11T08:57:13;100521.53;;;-0.95;99.89
6387;BME280;3226;42.162;24.756;2024-01-11T08:59:41;100528.34;;;-0.53;97.71
6387;BME280;3226;42.162;24.756;2024-01-11T09:02:09;100498.22;;;-0.48;94.79
6387;BME280;3226;42.162;24.756;2024-01-11T09:04:45;100492.69;;;-0.33;93.21
6387;BME280;3226;42.162;24.756;2024-01-11T09:07:14;100511.44;;;-0.26;92.46
6387;BME280;3226;42.162;24.756;2024-01-11T09:09:44;100501.25;;;-0.68;95.06
6387;BME280;3226;42.162;24.756;2024-01-11T09:12:22;100502.00;;;-0.65;95.14
6387;BME280;3226;42.162;24.756;2024-01-11T09:14:50;100384.28;;;-0.91;96.11
6387;BME280;3226;42.162;24.756;2024-01-11T09:17:18;100447.44;;;-0.07;91.81
6387;BME280;3226;42.162;24.756;2024-01-11T09:19:46;100477.91;;;0.10;93.18
6387;BME280;3226;42.162;24.756;2024-01-11T09:22:14;100464.50;;;-0.03;92.84
6387;BME280;3226;42.162;24.756;2024-01-11T09:24:44;100481.16;;;0.17;92.77
6387;BME280;3226;42.162;24.756;2024-01-11T09:27:12;100472.25;;;0.31;92.38
6387;BME280;3226;42.162;24.756;2024-01-11T09:29:42;100467.91;;;0.33;90.27
6387;BME280;3226;42.162;24.756;2024-01-11T09:32:11;100468.59;;;0.38;90.75
6387;BME280;3226;42.162;24.756;2024-01-11T09:34:40;100444.06;;;-0.09;91.20
6387;BME280;3226;42.162;24.756;2024-01-11T09:37:08;100458.19;;;0.09;92.24
6387;BME280;3226;42.162;24.756;2024-01-11T09:39:36;100453.16;;;0.05;91.38
6387;BME280;3226;42.162;24.756;2024-01-11T09:42:07;100444.63;;;0.03;90.70
6387;BME280;3226;42.162;24.756;2024-01-11T09:44:36;100437.97;;;-0.06;91.38
6387;BME280;3226;42.162;24.756;2024-01-11T09:47:06;100443.63;;;0.08;92.13
6387;BME280;3226;42.162;24.756;2024-01-11T09:49:40;100379.44;;;0.01;90.93
6387;BME280;3226;42.162;24.756;2024-01-11T09:52:09;100418.75;;;0.39;90.25
6387;BME280;3226;42.162;24.756;2024-01-11T09:54:39;100406.31;;;0.23;89.47
6387;BME280;3226;42.162;24.756;2024-01-11T09:57:09;100393.56;;;0.49;89.98
6387;BME280;3226;42.162;24.756;2024-01-11T09:59:38;100401.81;;;0.62;89.06
6387;BME280;3226;42.162;24.756;2024-01-11T10:02:08;100377.84;;;0.58;87.99
6387;BME280;3226;42.162;24.756;2024-01-11T10:04:37;100400.63;;;1.00;87.39
6387;BME280;3226;42.162;24.756;2024-01-11T10:07:06;100393.31;;;1.15;86.44
6387;BME280;3226;42.162;24.756;2024-01-11T10:09:34;100392.28;;;0.92;87.38
6387;BME280;3226;42.162;24.756;2024-01-11T10:12:04;100388.75;;;1.23;87.71
6387;BME280;3226;42.162;24.756;2024-01-11T10:14:33;100386.72;;;1.06;86.88
6387;BME280;3226;42.162;24.756;2024-01-11T10:17:01;100382.06;;;1.18;87.63
6387;BME280;3226;42.162;24.756;2024-01-11T10:19:30;100371.66;;;0.92;86.66
6387;BME280;3226;42.162;24.756;2024-01-11T10:21:58;100369.16;;;0.91;87.79
6387;BME280;3226;42.162;24.756;2024-01-11T10:24:26;100314.97;;;0.34;88.16
6387;BME280;3226;42.162;24.756;2024-01-11T10:26:55;100355.47;;;0.89;90.60
6387;BME280;3226;42.162;24.756;2024-01-11T10:29:28;100350.00;;;0.98;84.80
6387;BME280;3226;42.162;24.756;2024-01-11T10:31:59;100347.56;;;0.93;86.49
6387;BME280;3226;42.162;24.756;2024-01-11T10:34:27;100348.88;;;0.78;86.08
6387;BME280;3226;42.162;24.756;2024-01-11T10:36:55;100339.69;;;0.98;87.10
6387;BME280;3226;42.162;24.756;2024-01-11T10:39:25;100238.59;;;0.60;84.70
6387;BME280;3226;42.162;24.756;2024-01-11T10:42:01;100325.19;;;1.21;84.46
6387;BME280;3226;42.162;24.756;2024-01-11T10:44:34;100310.22;;;1.05;84.63
6387;BME280;3226;42.162;24.756;2024-01-11T10:47:05;100314.25;;;1.14;84.70
6387;BME280;3226;42.162;24.756;2024-01-11T10:49:39;100305.03;;;1.32;85.81
6387;BME280;3226;42.162;24.756;2024-01-11T10:52:12;100304.16;;;1.33;83.82
6387;BME280;3226;42.162;24.756;2024-01-11T10:54:42;100301.81;;;1.25;83.17
6387;BME280;3226;42.162;24.756;2024-01-11T10:57:12;100291.09;;;1.63;81.25
6387;BME280;3226;42.162;24.756;2024-01-11T10:59:41;100291.19;;;1.60;80.76
6387;BME280;3226;42.162;24.756;2024-01-11T11:02:12;100292.47;;;1.48;81.91
6387;BME280;3226;42.162;24.756;2024-01-11T11:04:43;100288.88;;;1.76;80.44
6387;BME280;3226;42.162;24.756;2024-01-11T11:07:12;100282.00;;;1.77;81.21
6387;BME280;3226;42.162;24.756;2024-01-11T11:09:44;100274.41;;;1.96;82.68
6387;BME280;3226;42.162;24.756;2024-01-11T11:12:13;100272.66;;;2.20;82.56
6387;BME280;3226;42.162;24.756;2024-01-11T11:14:42;100215.41;;;1.85;80.28
6387;BME280;3226;42.162;24.756;2024-01-11T11:17:14;100265.50;;;1.81;80.52
6387;BME280;3226;42.162;24.756;2024-01-11T11:19:42;100247.34;;;2.06;80.35
6387;BME280;3226;42.162;24.756;2024-01-11T11:22:12;100260.22;;;2.30;82.57
6387;BME280;3226;42.162;24.756;2024-01-11T11:24:42;100258.19;;;2.60;78.81
6387;BME280;3226;42.162;24.756;2024-01-11T11:27:13;100228.72;;;2.42;79.04
6387;BME280;3226;42.162;24.756;2024-01-11T11:29:41;100240.72;;;2.88;76.75
6387;BME280;3226;42.162;24.756;2024-01-11T11:32:10;100200.63;;;2.55;76.67
6387;BME280;3226;42.162;24.756;2024-01-11T11:34:43;100228.50;;;2.92;78.74
6387;BME280;3226;42.162;24.756;2024-01-11T11:37:12;100224.75;;;3.20;74.34
6387;BME280;3226;42.162;24.756;2024-01-11T11:39:41;100226.03;;;3.30;74.49
6387;BME280;3226;42.162;24.756;2024-01-11T11:42:10;100217.56;;;3.26;70.65
6387;BME280;3226;42.162;24.756;2024-01-11T11:44:47;100214.91;;;3.28;69.47
6387;BME280;3226;42.162;24.756;2024-01-11T11:47:19;100201.91;;;3.09;68.98
6387;BME280;3226;42.162;24.756;2024-01-11T11:50:15;100197.50;;;3.11;67.13
6387;BME280;3226;42.162;24.756;2024-01-11T11:52:45;100197.56;;;2.88;69.23
6387;BME280;3226;42.162;24.756;2024-01-11T11:55:22;100191.38;;;2.93;67.89
6387;BME280;3226;42.162;24.756;2024-01-11T11:57:51;100179.00;;;2.99;67.82
6387;BME280;3226;42.162;24.756;2024-01-11T12:00:20;100172.16;;;2.98;67.59
6387;BME280;3226;42.162;24.756;2024-01-11T12:02:49;100133.47;;;2.74;67.11
6387;BME280;3226;42.162;24.756;2024-01-11T12:05:21;100154.50;;;2.87;66.78
6387;BME280;3226;42.162;24.756;2024-01-11T12:07:49;100157.72;;;3.13;65.66
6387;BME280;3226;42.162;24.756;2024-01-11T12:10:19;100149.06;;;3.14;62.51
6387;BME280;3226;42.162;24.756;2024-01-11T12:12:47;100122.53;;;3.09;62.39
6387;BME280;3226;42.162;24.756;2024-01-11T12:15:16;100119.25;;;3.25;62.65
6387;BME280;3226;42.162;24.756;2024-01-11T12:17:45;100131.44;;;3.42;62.32
6387;BME280;3226;42.162;24.756;2024-01-11T12:20:13;100129.63;;;3.63;62.53
6387;BME280;3226;42.162;24.756;2024-01-11T12:22:44;100091.00;;;3.39;62.49
6387;BME280;3226;42.162;24.756;2024-01-11T12:25:13;100127.66;;;3.68;61.69
6387;BME280;3226;42.162;24.756;2024-01-11T12:27:42;100121.78;;;3.84;60.71
6387;BME280;3226;42.162;24.756;2024-01-11T12:30:11;100121.97;;;3.79;58.86
6387;BME280;3226;42.162;24.756;2024-01-11T12:32:41;100062.03;;;3.31;59.89
6387;BME280;3226;42.162;24.756;2024-01-11T12:35:09;100111.00;;;3.55;61.06
6387;BME280;3226;42.162;24.756;2024-01-11T12:37:38;100100.03;;;3.50;61.88
6387;BME280;3226;42.162;24.756;2024-01-11T12:40:12;100098.97;;;3.54;62.75
6387;BME280;3226;42.162;24.756;2024-01-11T12:42:40;100058.16;;;3.59;62.41
6387;BME280;3226;42.162;24.756;2024-01-11T12:45:08;100097.56;;;4.02;61.72
6387;BME280;3226;42.162;24.756;2024-01-11T12:47:36;100096.88;;;3.62;62.84
6387;BME280;3226;42.162;24.756;2024-01-11T12:50:06;100101.59;;;3.90;62.38
6387;BME280;3226;42.162;24.756;2024-01-11T12:52:35;100090.38;;;3.90;60.28
6387;BME280;3226;42.162;24.756;2024-01-11T12:55:04;100083.84;;;4.00;60.45
6387;BME280;3226;42.162;24.756;2024-01-11T12:57:34;100084.69;;;4.01;59.39
6387;BME280;3226;42.162;24.756;2024-01-11T13:00:12;100087.88;;;3.69;60.55
6387;BME280;3226;42.162;24.756;2024-01-11T13:02:42;100083.00;;;3.44;63.09
6387;BME280;3226;42.162;24.756;2024-01-11T13:05:13;100074.81;;;3.34;62.73
6387;BME280;3226;42.162;24.756;2024-01-11T13:07:43;99964.25;;;2.80;62.23